sensor_id;sensor_type;location;lat;lon;timestamp;temperature;humidity
13682;DHT22;6913;49.892;7.936;2022-11-20T00:00:49;3.20;99.90
13682;DHT22;6913;49.892;7.936;2022-11-20T00:03:16;3.20;99.90
13682;DHT22;6913;49.892;7.936;2022-11-20T00:05:43;3.20;99.90
13682;DHT22;6913;49.892;7.936;2022-11-20T00:08:10;3.10;99.90
13682;DHT22;6913;49.892;7.936;2022-11-20T00:10:37;3.10;99.90
13682;DHT22;6913;49.892;7.936;2022-11-20T00:13:05;3.10;99.90
13682;DHT22;6913;49.892;7.936;2022-11-20T00:15:33;3.10;99.90
13682;DHT22;6913;49.892;7.936;2022-11-20T00:18:00;3.10;99.90
13682;DHT22;6913;49.892;7.936;2022-11-20T00:20:27;3.10;99.90
13682;DHT22;6913;49.892;7.936;2022-11-20T00:22:54;3.00;99.90
13682;DHT22;6913;49.892;7.936;2022-11-20T00:25:21;2.80;99.90
13682;DHT22;6913;49.892;7.936;2022-11-20T00:27:47;2.50;99.90
13682;DHT22;6913;49.892;7.936;2022-11-20T00:30:14;2.50;99.90
13682;DHT22;6913;49.892;7.936;2022-11-20T00:32:42;2.60;99.90
13682;DHT22;6913;49.892;7.936;2022-11-20T00:35:09;2.70;99.90
13682;DHT22;6913;49.892;7.936;2022-11-20T00:37:36;2.90;99.90
13682;DHT22;6913;49.892;7.936;2022-11-20T00:40:04;3.00;99.90
13682;DHT22;6913;49.892;7.936;2022-11-20T00:42:30;3.10;99.90
13682;DHT22;6913;49.892;7.936;2022-11-20T00:44:58;3.10;99.90
13682;DHT22;6913;49.892;7.936;2022-11-20T00:47:25;3.10;99.90
13682;DHT22;6913;49.892;7.936;2022-11-20T00:49:53;3.50;99.90
13682;DHT22;6913;49.892;7.936;2022-11-20T00:52:20;3.10;99.90
13682;DHT22;6913;49.892;7.936;2022-11-20T00:54:46;3.00;99.90
13682;DHT22;6913;49.892;7.936;2022-11-20T00:57:13;3.10;99.90
13682;DHT22;6913;49.892;7.936;2022-11-20T00:59:40;3.00;99.90
13682;DHT22;6913;49.892;7.936;2022-11-20T01:02:07;2.90;99.90
13682;DHT22;6913;49.892;7.936;2022-11-20T01:04:34;2.90;99.90
13682;DHT22;6913;49.892;7.936;2022-11-20T01:07:02;3.00;99.90
13682;DHT22;6913;49.892;7.936;2022-11-20T01:09:28;3.10;99.90
13682;DHT22;6913;49.892;7.936;2022-11-20T01:11:55;2.90;99.90
13682;DHT22;6913;49.892;7.936;2022-11-20T01:14:22;2.90;99.90
13682;DHT22;6913;49.892;7.936;2022-11-20T01:16:51;3.00;99.90
13682;DHT22;6913;49.892;7.936;2022-11-20T01:19:19;3.10;99.90
13682;DHT22;6913;49.892;7.936;2022-11-20T01:21:48;3.20;99.90
13682;DHT22;6913;49.892;7.936;2022-11-20T01:24:18;3.20;99.90
13682;DHT22;6913;49.892;7.936;2022-11-20T01:26:47;3.00;99.90
13682;DHT22;6913;49.892;7.936;2022-11-20T01:29:17;2.80;99.90
13682;DHT22;6913;49.892;7.936;2022-11-20T01:31:45;2.90;99.90
13682;DHT22;6913;49.892;7.936;2022-11-20T01:34:13;3.00;99.90
13682;DHT22;6913;49.892;7.936;2022-11-20T01:36:41;3.00;99.90
13682;DHT22;6913;49.892;7.936;2022-11-20T01:39:11;3.10;99.90
13682;DHT22;6913;49.892;7.936;2022-11-20T01:41:40;3.20;99.90
13682;DHT22;6913;49.892;7.936;2022-11-20T01:44:43;3.60;99.90
13682;DHT22;6913;49.892;7.936;2022-11-20T01:47:13;4.80;99.90
13682;DHT22;6913;49.892;7.936;2022-11-20T01:49:45;3.30;99.90
13682;DHT22;6913;49.892;7.936;2022-11-20T01:52:17;3.30;99.90
13682;DHT22;6913;49.892;7.936;2022-11-20T01:54:48;3.40;99.90
13682;DHT22;6913;49.892;7.936;2022-11-20T01:57:19;3.40;99.90
13682;DHT22;6913;49.892;7.936;2022-11-20T01:59:51;3.40;99.90
13682;DHT22;6913;49.892;7.936;2022-11-20T02:02:20;3.40;99.90
13682;DHT22;6913;49.892;7.936;2022-11-20T02:04:49;3.40;99.90
13682;DHT22;6913;49.892;7.936;2022-11-20T02:07:18;3.40;99.90
13682;DHT22;6913;49.892;7.936;2022-11-20T02:09:46;3.40;99.90
13682;DHT22;6913;49.892;7.936;2022-11-20T02:12:13;3.40;99.90
13682;DHT22;6913;49.892;7.936;2022-11-20T02:14:56;3.40;99.90
13682;DHT22;6913;49.892;7.936;2022-11-20T02:17:23;3.40;99.90
13682;DHT22;6913;49.892;7.936;2022-11-20T02:19:51;3.10;99.90
13682;DHT22;6913;49.892;7.936;2022-11-20T02:22:22;2.90;99.90
13682;DHT22;6913;49.892;7.936;2022-11-20T02:24:52;2.70;99.90
13682;DHT22;6913;49.892;7.936;2022-11-20T02:27:19;2.60;99.90
13682;DHT22;6913;49.892;7.936;2022-11-20T02:29:50;2.80;99.90
13682;DHT22;6913;49.892;7.936;2022-11-20T02:32:19;2.90;99.90
13682;DHT22;6913;49.892;7.936;2022-11-20T02:34:46;3.10;99.90
13682;DHT22;6913;49.892;7.936;2022-11-20T02:37:14;3.10;99.90
13682;DHT22;6913;49.892;7.936;2022-11-20T02:39:42;3.20;99.90
13682;DHT22;6913;49.892;7.936;2022-11-20T02:42:11;3.10;99.90
13682;DHT22;6913;49.892;7.936;2022-11-20T02:44:38;3.00;99.90
13682;DHT22;6913;49.892;7.936;2022-11-20T02:47:04;3.10;99.90
13682;DHT22;6913;49.892;7.936;2022-11-20T02:49:31;3.10;99.90
13682;DHT22;6913;49.892;7.936;2022-11-20T02:51:59;3.20;99.90
13682;DHT22;6913;49.892;7.936;2022-11-20T02:54:26;3.30;99.90
13682;DHT22;6913;49.892;7.936;2022-11-20T02:56:53;3.30;99.90
13682;DHT22;6913;49.892;7.936;2022-11-20T02:59:21;3.20;99.90
13682;DHT22;6913;49.892;7.936;2022-11-20T03:01:48;3.30;99.90
13682;DHT22;6913;49.892;7.936;2022-11-20T03:04:15;3.30;99.90
13682;DHT22;6913;49.892;7.936;2022-11-20T03:06:41;3.40;99.90
13682;DHT22;6913;49.892;7.936;2022-11-20T03:09:08;3.40;99.90
13682;DHT22;6913;49.892;7.936;2022-11-20T03:11:35;3.40;99.90
13682;DHT22;6913;49.892;7.936;2022-11-20T03:14:02;3.40;99.90
13682;DHT22;6913;49.892;7.936;2022-11-20T03:16:32;3.40;99.90
13682;DHT22;6913;49.892;7.936;2022-11-20T03:18:59;3.30;99.90
13682;DHT22;6913;49.892;7.936;2022-11-20T03:21:26;3.20;99.90
13682;DHT22;6913;49.892;7.936;2022-11-20T03:23:53;3.30;99.90
13682;DHT22;6913;49.892;7.936;2022-11-20T03:26:23;3.30;99.90
13682;DHT22;6913;49.892;7.936;2022-11-20T03:28:51;3.30;99.90
13682;DHT22;6913;49.892;7.936;2022-11-20T03:31:20;3.40;99.90
13682;DHT22;6913;49.892;7.936;2022-11-20T03:33:48;3.40;99.90
13682;DHT22;6913;49.892;7.936;2022-11-20T03:36:17;3.30;99.90
13682;DHT22;6913;49.892;7.936;2022-11-20T03:38:44;3.30;99.90
13682;DHT22;6913;49.892;7.936;2022-11-20T03:41:12;3.10;99.90
13682;DHT22;6913;49.892;7.936;2022-11-20T03:43:39;3.20;99.90
13682;DHT22;6913;49.892;7.936;2022-11-20T03:46:07;3.20;99.90
13682;DHT22;6913;49.892;7.936;2022-11-20T03:48:34;3.30;99.90
13682;DHT22;6913;49.892;7.936;2022-11-20T03:51:09;3.10;99.90
13682;DHT22;6913;49.892;7.936;2022-11-20T03:53:36;3.20;99.90
13682;DHT22;6913;49.892;7.936;2022-11-20T03:56:04;3.20;99.90
13682;DHT22;6913;49.892;7.936;2022-11-20T03:58:33;3.10;99.90
13682;DHT22;6913;49.892;7.936;2022-11-20T04:01:04;3.00;99.90
13682;DHT22;6913;49.892;7.936;2022-11-20T04:03:32;2.80;99.90
13682;DHT22;6913;49.892;7.936;2022-11-20T04:06:02;2.60;99.90
13682;DHT22;6913;49.892;7.936;2022-11-20T04:08:30;2.80;99.90
13682;DHT22;6913;49.892;7.936;2022-11-20T04:11:08;2.90;99.90
13682;DHT22;6913;49.892;7.936;2022-11-20T04:13:35;3.40;99.90
13682;DHT22;6913;49.892;7.936;2022-11-20T04:16:02;3.00;99.90
13682;DHT22;6913;49.892;7.936;2022-11-20T04:18:29;2.70;99.90
13682;DHT22;6913;49.892;7.936;2022-11-20T04:20:56;2.80;99.90
13682;DHT22;6913;49.892;7.936;2022-11-20T04:23:23;3.00;99.90
13682;DHT22;6913;49.892;7.936;2022-11-20T04:25:52;3.00;99.90
13682;DHT22;6913;49.892;7.936;2022-11-20T04:28:19;3.10;99.90
13682;DHT22;6913;49.892;7.936;2022-11-20T04:30:46;3.10;99.90
13682;DHT22;6913;49.892;7.936;2022-11-20T04:33:12;2.90;99.90
13682;DHT22;6913;49.892;7.936;2022-11-20T04:35:39;2.90;99.90
13682;DHT22;6913;49.892;7.936;2022-11-20T04:38:06;2.90;99.90
13682;DHT22;6913;49.892;7.936;2022-11-20T04:40:33;2.80;99.90
13682;DHT22;6913;49.892;7.936;2022-11-20T04:43:01;3.00;99.90
13682;DHT22;6913;49.892;7.936;2022-11-20T04:45:28;3.20;99.90
13682;DHT22;6913;49.892;7.936;2022-11-20T04:47:54;3.10;99.90
13682;DHT22;6913;49.892;7.936;2022-11-20T04:50:21;3.20;99.90
13682;DHT22;6913;49.892;7.936;2022-11-20T04:52:48;3.30;99.90
13682;DHT22;6913;49.892;7.936;2022-11-20T04:55:15;3.30;99.90
13682;DHT22;6913;49.892;7.936;2022-11-20T04:57:42;3.40;99.90
13682;DHT22;6913;49.892;7.936;2022-11-20T05:00:11;3.30;99.90
13682;DHT22;6913;49.892;7.936;2022-11-20T05:02:38;3.30;99.90
13682;DHT22;6913;49.892;7.936;2022-11-20T05:05:05;3.20;99.90
13682;DHT22;6913;49.892;7.936;2022-11-20T05:07:32;3.20;99.90
13682;DHT22;6913;49.892;7.936;2022-11-20T05:09:59;3.20;99.90
13682;DHT22;6913;49.892;7.936;2022-11-20T05:12:25;3.40;99.90
13682;DHT22;6913;49.892;7.936;2022-11-20T05:14:54;3.20;99.90
13682;DHT22;6913;49.892;7.936;2022-11-20T05:17:22;2.90;99.90
13682;DHT22;6913;49.892;7.936;2022-11-20T05:19:49;2.70;99.90
13682;DHT22;6913;49.892;7.936;2022-11-20T05:22:15;2.80;99.90
13682;DHT22;6913;49.892;7.936;2022-11-20T05:24:42;2.80;99.90
13682;DHT22;6913;49.892;7.936;2022-11-20T05:27:09;2.90;99.90
13682;DHT22;6913;49.892;7.936;2022-11-20T05:29:36;2.80;99.90
13682;DHT22;6913;49.892;7.936;2022-11-20T05:32:03;3.00;99.90
13682;DHT22;6913;49.892;7.936;2022-11-20T05:34:32;3.10;99.90
13682;DHT22;6913;49.892;7.936;2022-11-20T05:36:59;2.90;99.90
13682;DHT22;6913;49.892;7.936;2022-11-20T05:39:26;2.70;99.90
13682;DHT22;6913;49.892;7.936;2022-11-20T05:41:53;2.70;99.90
13682;DHT22;6913;49.892;7.936;2022-11-20T05:44:33;2.80;99.90
13682;DHT22;6913;49.892;7.936;2022-11-20T05:47:00;2.90;99.90
13682;DHT22;6913;49.892;7.936;2022-11-20T05:49:27;3.10;99.90
13682;DHT22;6913;49.892;7.936;2022-11-20T05:51:55;3.10;99.90
13682;DHT22;6913;49.892;7.936;2022-11-20T05:54:22;3.20;99.90
13682;DHT22;6913;49.892;7.936;2022-11-20T05:56:49;3.20;99.90
13682;DHT22;6913;49.892;7.936;2022-11-20T05:59:16;3.20;99.90
13682;DHT22;6913;49.892;7.936;2022-11-20T06:01:42;3.50;99.90
13682;DHT22;6913;49.892;7.936;2022-11-20T06:04:09;3.20;99.90
13682;DHT22;6913;49.892;7.936;2022-11-20T06:06:36;3.30;99.90
13682;DHT22;6913;49.892;7.936;2022-11-20T06:09:04;3.20;99.90
13682;DHT22;6913;49.892;7.936;2022-11-20T06:11:31;3.20;99.90
13682;DHT22;6913;49.892;7.936;2022-11-20T06:13:58;3.00;99.90
13682;DHT22;6913;49.892;7.936;2022-11-20T06:16:24;3.10;99.90
13682;DHT22;6913;49.892;7.936;2022-11-20T06:18:52;3.50;99.90
13682;DHT22;6913;49.892;7.936;2022-11-20T06:21:20;3.30;99.90
13682;DHT22;6913;49.892;7.936;2022-11-20T06:23:48;3.30;99.90
13682;DHT22;6913;49.892;7.936;2022-11-20T06:26:17;2.90;99.90
13682;DHT22;6913;49.892;7.936;2022-11-20T06:28:45;3.10;99.90
13682;DHT22;6913;49.892;7.936;2022-11-20T06:31:14;3.30;99.90
13682;DHT22;6913;49.892;7.936;2022-11-20T06:33:41;3.30;99.90
13682;DHT22;6913;49.892;7.936;2022-11-20T06:36:09;3.40;99.90
13682;DHT22;6913;49.892;7.936;2022-11-20T06:38:37;3.10;99.90
13682;DHT22;6913;49.892;7.936;2022-11-20T06:41:04;3.20;99.90
13682;DHT22;6913;49.892;7.936;2022-11-20T06:43:32;3.30;99.90
13682;DHT22;6913;49.892;7.936;2022-11-20T06:45:59;3.40;99.90
13682;DHT22;6913;49.892;7.936;2022-11-20T06:48:27;3.50;99.90
13682;DHT22;6913;49.892;7.936;2022-11-20T06:50:54;3.50;99.90
13682;DHT22;6913;49.892;7.936;2022-11-20T06:53:22;3.60;99.90
13682;DHT22;6913;49.892;7.936;2022-11-20T06:55:51;3.60;99.90
13682;DHT22;6913;49.892;7.936;2022-11-20T06:58:18;3.70;99.90
13682;DHT22;6913;49.892;7.936;2022-11-20T07:00:46;3.70;99.90
13682;DHT22;6913;49.892;7.936;2022-11-20T07:03:13;3.70;99.90
13682;DHT22;6913;49.892;7.936;2022-11-20T07:05:40;3.70;99.90
13682;DHT22;6913;49.892;7.936;2022-11-20T07:08:07;3.70;99.90
13682;DHT22;6913;49.892;7.936;2022-11-20T07:10:34;3.60;99.90
13682;DHT22;6913;49.892;7.936;2022-11-20T07:13:00;3.60;99.90
13682;DHT22;6913;49.892;7.936;2022-11-20T07:15:27;3.70;99.90
13682;DHT22;6913;49.892;7.936;2022-11-20T07:17:58;3.70;99.90
13682;DHT22;6913;49.892;7.936;2022-11-20T07:20:25;3.70;99.90
13682;DHT22;6913;49.892;7.936;2022-11-20T07:22:53;3.70;99.90
13682;DHT22;6913;49.892;7.936;2022-11-20T07:25:21;3.60;99.90
13682;DHT22;6913;49.892;7.936;2022-11-20T07:27:48;3.40;99.90
13682;DHT22;6913;49.892;7.936;2022-11-20T07:30:15;3.40;99.90
13682;DHT22;6913;49.892;7.936;2022-11-20T07:32:42;3.50;99.90
13682;DHT22;6913;49.892;7.936;2022-11-20T07:35:10;3.40;99.90
13682;DHT22;6913;49.892;7.936;2022-11-20T07:37:37;3.20;99.90
13682;DHT22;6913;49.892;7.936;2022-11-20T07:40:04;3.00;99.90
13682;DHT22;6913;49.892;7.936;2022-11-20T07:42:31;3.10;99.90
13682;DHT22;6913;49.892;7.936;2022-11-20T07:44:58;3.10;99.90
13682;DHT22;6913;49.892;7.936;2022-11-20T07:47:25;3.30;99.90
13682;DHT22;6913;49.892;7.936;2022-11-20T07:49:52;3.30;99.90
13682;DHT22;6913;49.892;7.936;2022-11-20T07:52:20;3.20;99.90
13682;DHT22;6913;49.892;7.936;2022-11-20T07:54:47;3.30;99.90
13682;DHT22;6913;49.892;7.936;2022-11-20T07:57:14;3.40;99.90
13682;DHT22;6913;49.892;7.936;2022-11-20T07:59:41;3.40;99.90
13682;DHT22;6913;49.892;7.936;2022-11-20T08:02:09;3.50;99.90
13682;DHT22;6913;49.892;7.936;2022-11-20T08:04:37;3.50;99.90
13682;DHT22;6913;49.892;7.936;2022-11-20T08:07:03;3.60;99.90
13682;DHT22;6913;49.892;7.936;2022-11-20T08:09:32;3.50;99.90
13682;DHT22;6913;49.892;7.936;2022-11-20T08:11:59;3.60;99.90
13682;DHT22;6913;49.892;7.936;2022-11-20T08:14:43;3.70;99.90
13682;DHT22;6913;49.892;7.936;2022-11-20T08:17:10;3.70;99.90
13682;DHT22;6913;49.892;7.936;2022-11-20T08:19:37;3.60;99.90
13682;DHT22;6913;49.892;7.936;2022-11-20T08:22:03;3.60;99.90
13682;DHT22;6913;49.892;7.936;2022-11-20T08:24:32;3.60;99.90
13682;DHT22;6913;49.892;7.936;2022-11-20T08:26:58;3.70;99.90
13682;DHT22;6913;49.892;7.936;2022-11-20T08:29:26;3.60;99.90
13682;DHT22;6913;49.892;7.936;2022-11-20T08:31:53;3.50;99.90
13682;DHT22;6913;49.892;7.936;2022-11-20T08:34:19;3.60;99.90
13682;DHT22;6913;49.892;7.936;2022-11-20T08:36:46;3.70;99.90
13682;DHT22;6913;49.892;7.936;2022-11-20T08:39:14;3.90;99.90
13682;DHT22;6913;49.892;7.936;2022-11-20T08:41:42;3.90;99.90
13682;DHT22;6913;49.892;7.936;2022-11-20T08:44:09;4.00;99.90
13682;DHT22;6913;49.892;7.936;2022-11-20T08:46:37;4.00;99.90
13682;DHT22;6913;49.892;7.936;2022-11-20T08:49:05;3.90;99.90
13682;DHT22;6913;49.892;7.936;2022-11-20T08:51:32;4.00;99.90
13682;DHT22;6913;49.892;7.936;2022-11-20T08:53:59;4.00;99.90
13682;DHT22;6913;49.892;7.936;2022-11-20T08:56:26;4.00;99.90
13682;DHT22;6913;49.892;7.936;2022-11-20T08:58:55;4.10;99.90
13682;DHT22;6913;49.892;7.936;2022-11-20T09:01:22;4.10;99.90
13682;DHT22;6913;49.892;7.936;2022-11-20T09:03:50;4.00;99.90
13682;DHT22;6913;49.892;7.936;2022-11-20T09:06:17;4.10;99.90
13682;DHT22;6913;49.892;7.936;2022-11-20T09:08:44;4.10;99.90
13682;DHT22;6913;49.892;7.936;2022-11-20T09:11:11;4.00;99.90
13682;DHT22;6913;49.892;7.936;2022-11-20T09:13:37;4.00;99.90
13682;DHT22;6913;49.892;7.936;2022-11-20T09:16:07;4.00;99.90
13682;DHT22;6913;49.892;7.936;2022-11-20T09:18:35;4.00;99.90
13682;DHT22;6913;49.892;7.936;2022-11-20T09:21:04;3.80;99.90
13682;DHT22;6913;49.892;7.936;2022-11-20T09:23:33;3.60;99.90
13682;DHT22;6913;49.892;7.936;2022-11-20T09:26:02;3.60;99.90
13682;DHT22;6913;49.892;7.936;2022-11-20T09:28:29;3.80;99.90
13682;DHT22;6913;49.892;7.936;2022-11-20T09:30:56;3.80;99.90
13682;DHT22;6913;49.892;7.936;2022-11-20T09:33:24;3.80;99.90
13682;DHT22;6913;49.892;7.936;2022-11-20T09:35:51;3.80;99.90
13682;DHT22;6913;49.892;7.936;2022-11-20T09:38:18;3.80;99.90
13682;DHT22;6913;49.892;7.936;2022-11-20T09:40:49;4.00;99.90
13682;DHT22;6913;49.892;7.936;2022-11-20T09:43:21;4.10;99.90
13682;DHT22;6913;49.892;7.936;2022-11-20T09:46:08;4.10;99.90
13682;DHT22;6913;49.892;7.936;2022-11-20T09:48:48;4.00;99.90
13682;DHT22;6913;49.892;7.936;2022-11-20T09:51:26;4.10;99.90
13682;DHT22;6913;49.892;7.936;2022-11-20T09:54:05;4.40;99.90
13682;DHT22;6913;49.892;7.936;2022-11-20T09:56:34;4.10;99.90
13682;DHT22;6913;49.892;7.936;2022-11-20T09:59:05;4.10;99.90
13682;DHT22;6913;49.892;7.936;2022-11-20T10:01:35;4.10;99.90
13682;DHT22;6913;49.892;7.936;2022-11-20T10:04:09;4.30;99.90
13682;DHT22;6913;49.892;7.936;2022-11-20T10:06:44;4.30;99.90
13682;DHT22;6913;49.892;7.936;2022-11-20T10:09:21;4.30;99.90
13682;DHT22;6913;49.892;7.936;2022-11-20T10:12:00;4.30;99.90
13682;DHT22;6913;49.892;7.936;2022-11-20T10:14:35;4.40;99.90
13682;DHT22;6913;49.892;7.936;2022-11-20T10:17:13;4.40;99.90
13682;DHT22;6913;49.892;7.936;2022-11-20T10:19:55;4.80;99.90
13682;DHT22;6913;49.892;7.936;2022-11-20T10:22:35;4.30;99.90
13682;DHT22;6913;49.892;7.936;2022-11-20T10:25:14;4.10;99.90
13682;DHT22;6913;49.892;7.936;2022-11-20T10:28:20;4.30;99.90
13682;DHT22;6913;49.892;7.936;2022-11-20T10:30:56;4.30;99.90
13682;DHT22;6913;49.892;7.936;2022-11-20T10:33:25;4.20;99.90
13682;DHT22;6913;49.892;7.936;2022-11-20T10:35:59;4.20;99.90
13682;DHT22;6913;49.892;7.936;2022-11-20T10:38:34;4.40;99.90
13682;DHT22;6913;49.892;7.936;2022-11-20T10:41:03;4.50;99.90
13682;DHT22;6913;49.892;7.936;2022-11-20T10:43:51;4.60;99.90
13682;DHT22;6913;49.892;7.936;2022-11-20T10:46:22;4.70;99.90
13682;DHT22;6913;49.892;7.936;2022-11-20T10:48:49;4.70;99.90
13682;DHT22;6913;49.892;7.936;2022-11-20T10:51:30;4.70;99.90
13682;DHT22;6913;49.892;7.936;2022-11-20T10:54:04;4.60;99.90
13682;DHT22;6913;49.892;7.936;2022-11-20T10:56:38;4.80;99.90
13682;DHT22;6913;49.892;7.936;2022-11-20T10:59:38;5.40;99.90
13682;DHT22;6913;49.892;7.936;2022-11-20T11:02:19;4.90;99.90
13682;DHT22;6913;49.892;7.936;2022-11-20T11:04:47;5.00;99.90
13682;DHT22;6913;49.892;7.936;2022-11-20T11:07:19;4.90;99.90
13682;DHT22;6913;49.892;7.936;2022-11-20T11:09:48;5.00;99.90
13682;DHT22;6913;49.892;7.936;2022-11-20T11:12:16;5.00;99.90
13682;DHT22;6913;49.892;7.936;2022-11-20T11:14:45;5.10;99.90
13682;DHT22;6913;49.892;7.936;2022-11-20T11:17:21;4.90;99.90
13682;DHT22;6913;49.892;7.936;2022-11-20T11:19:58;4.80;99.90
13682;DHT22;6913;49.892;7.936;2022-11-20T11:22:28;4.90;99.90
13682;DHT22;6913;49.892;7.936;2022-11-20T11:24:55;5.00;99.90
13682;DHT22;6913;49.892;7.936;2022-11-20T11:27:22;5.10;99.90
13682;DHT22;6913;49.892;7.936;2022-11-20T11:29:49;5.20;99.90
13682;DHT22;6913;49.892;7.936;2022-11-20T11:32:18;5.20;99.90
13682;DHT22;6913;49.892;7.936;2022-11-20T11:34:58;5.10;99.90
13682;DHT22;6913;49.892;7.936;2022-11-20T11:37:32;4.60;99.90
13682;DHT22;6913;49.892;7.936;2022-11-20T11:40:00;4.60;99.90
13682;DHT22;6913;49.892;7.936;2022-11-20T11:42:28;4.40;99.90
13682;DHT22;6913;49.892;7.936;2022-11-20T11:44:57;4.40;99.90
13682;DHT22;6913;49.892;7.936;2022-11-20T11:47:36;4.50;99.90
13682;DHT22;6913;49.892;7.936;2022-11-20T11:50:18;4.50;99.90
13682;DHT22;6913;49.892;7.936;2022-11-20T11:53:02;4.40;99.90
13682;DHT22;6913;49.892;7.936;2022-11-20T11:55:36;4.50;99.90
13682;DHT22;6913;49.892;7.936;2022-11-20T11:58:14;4.60;99.90
13682;DHT22;6913;49.892;7.936;2022-11-20T12:00:51;4.70;99.90
13682;DHT22;6913;49.892;7.936;2022-11-20T12:03:22;5.00;99.90
13682;DHT22;6913;49.892;7.936;2022-11-20T12:05:55;4.80;99.90
13682;DHT22;6913;49.892;7.936;2022-11-20T12:08:27;4.70;99.90
13682;DHT22;6913;49.892;7.936;2022-11-20T12:11:00;4.90;99.90
13682;DHT22;6913;49.892;7.936;2022-11-20T12:13:40;5.20;99.90
13682;DHT22;6913;49.892;7.936;2022-11-20T12:16:11;5.10;99.90
13682;DHT22;6913;49.892;7.936;2022-11-20T12:18:40;5.20;99.90
13682;DHT22;6913;49.892;7.936;2022-11-20T12:21:18;5.40;99.90
13682;DHT22;6913;49.892;7.936;2022-11-20T12:23:59;5.20;99.90
13682;DHT22;6913;49.892;7.936;2022-11-20T12:26:38;5.40;99.90
13682;DHT22;6913;49.892;7.936;2022-11-20T12:29:17;5.30;99.90
13682;DHT22;6913;49.892;7.936;2022-11-20T12:31:54;5.40;99.90
13682;DHT22;6913;49.892;7.936;2022-11-20T12:34:40;5.50;99.90
13682;DHT22;6913;49.892;7.936;2022-11-20T12:37:23;5.40;99.90
13682;DHT22;6913;49.892;7.936;2022-11-20T12:40:02;5.30;99.90
13682;DHT22;6913;49.892;7.936;2022-11-20T12:42:49;5.40;99.90
13682;DHT22;6913;49.892;7.936;2022-11-20T12:45:54;5.50;99.90
13682;DHT22;6913;49.892;7.936;2022-11-20T12:48:42;5.70;99.90
13682;DHT22;6913;49.892;7.936;2022-11-20T12:51:29;5.60;99.90
13682;DHT22;6913;49.892;7.936;2022-11-20T12:54:18;5.70;99.90
13682;DHT22;6913;49.892;7.936;2022-11-20T12:56:57;5.90;99.90
13682;DHT22;6913;49.892;7.936;2022-11-20T12:59:46;6.00;99.90
13682;DHT22;6913;49.892;7.936;2022-11-20T13:02:24;6.10;99.90
13682;DHT22;6913;49.892;7.936;2022-11-20T13:05:08;6.20;99.90
13682;DHT22;6913;49.892;7.936;2022-11-20T13:07:38;6.20;99.90
13682;DHT22;6913;49.892;7.936;2022-11-20T13:10:16;6.10;99.90
13682;DHT22;6913;49.892;7.936;2022-11-20T13:12:51;6.00;99.90
13682;DHT22;6913;49.892;7.936;2022-11-20T13:15:31;6.20;99.90
13682;DHT22;6913;49.892;7.936;2022-11-20T13:18:01;6.20;99.90
13682;DHT22;6913;49.892;7.936;2022-11-20T13:20:29;6.30;99.90
13682;DHT22;6913;49.892;7.936;2022-11-20T13:22:57;6.50;99.90
13682;DHT22;6913;49.892;7.936;2022-11-20T13:25:26;6.60;99.90
13682;DHT22;6913;49.892;7.936;2022-11-20T13:27:55;6.80;99.90
13682;DHT22;6913;49.892;7.936;2022-11-20T13:30:23;7.20;99.90
13682;DHT22;6913;49.892;7.936;2022-11-20T13:32:53;6.90;99.90
13682;DHT22;6913;49.892;7.936;2022-11-20T13:35:26;6.50;99.90
13682;DHT22;6913;49.892;7.936;2022-11-20T13:38:07;6.60;99.90
13682;DHT22;6913;49.892;7.936;2022-11-20T13:40:37;6.80;99.90
13682;DHT22;6913;49.892;7.936;2022-11-20T13:43:16;6.90;99.90
13682;DHT22;6913;49.892;7.936;2022-11-20T13:45:54;7.10;99.90
13682;DHT22;6913;49.892;7.936;2022-11-20T13:48:23;7.10;99.90
13682;DHT22;6913;49.892;7.936;2022-11-20T13:53:58;6.70;99.90
13682;DHT22;6913;49.892;7.936;2022-11-20T13:56:37;6.60;99.90
13682;DHT22;6913;49.892;7.936;2022-11-20T13:59:14;6.70;99.90
13682;DHT22;6913;49.892;7.936;2022-11-20T14:01:45;6.90;99.90
13682;DHT22;6913;49.892;7.936;2022-11-20T14:04:15;7.00;99.90
13682;DHT22;6913;49.892;7.936;2022-11-20T14:06:46;7.10;99.90
13682;DHT22;6913;49.892;7.936;2022-11-20T14:09:25;7.10;99.90
13682;DHT22;6913;49.892;7.936;2022-11-20T14:11:52;7.40;99.90
13682;DHT22;6913;49.892;7.936;2022-11-20T14:14:21;7.00;99.90
13682;DHT22;6913;49.892;7.936;2022-11-20T14:16:49;7.00;99.90
13682;DHT22;6913;49.892;7.936;2022-11-20T14:19:26;7.70;99.90
13682;DHT22;6913;49.892;7.936;2022-11-20T14:22:05;7.10;99.90
13682;DHT22;6913;49.892;7.936;2022-11-20T14:24:33;7.10;99.90
13682;DHT22;6913;49.892;7.936;2022-11-20T14:27:00;7.00;99.90
13682;DHT22;6913;49.892;7.936;2022-11-20T14:29:29;6.90;99.90
13682;DHT22;6913;49.892;7.936;2022-11-20T14:31:59;7.30;99.90
13682;DHT22;6913;49.892;7.936;2022-11-20T14:34:30;6.80;99.90
13682;DHT22;6913;49.892;7.936;2022-11-20T14:36:59;6.70;99.90
13682;DHT22;6913;49.892;7.936;2022-11-20T14:39:30;6.50;99.90
13682;DHT22;6913;49.892;7.936;2022-11-20T14:41:58;6.50;99.90
13682;DHT22;6913;49.892;7.936;2022-11-20T14:44:29;6.80;99.90
13682;DHT22;6913;49.892;7.936;2022-11-20T14:46:57;6.40;99.90
13682;DHT22;6913;49.892;7.936;2022-11-20T14:49:25;6.30;99.90
13682;DHT22;6913;49.892;7.936;2022-11-20T14:51:59;6.40;99.90
13682;DHT22;6913;49.892;7.936;2022-11-20T14:54:26;6.50;99.90
13682;DHT22;6913;49.892;7.936;2022-11-20T14:56:56;6.50;99.90
13682;DHT22;6913;49.892;7.936;2022-11-20T14:59:24;6.50;99.90
13682;DHT22;6913;49.892;7.936;2022-11-20T15:01:58;6.50;99.90
13682;DHT22;6913;49.892;7.936;2022-11-20T15:04:25;6.50;99.90
13682;DHT22;6913;49.892;7.936;2022-11-20T15:06:54;6.50;99.90
13682;DHT22;6913;49.892;7.936;2022-11-20T15:09:21;6.70;99.90
13682;DHT22;6913;49.892;7.936;2022-11-20T15:11:54;6.70;99.90
13682;DHT22;6913;49.892;7.936;2022-11-20T15:14:22;6.60;99.90
13682;DHT22;6913;49.892;7.936;2022-11-20T15:16:50;6.60;99.90
13682;DHT22;6913;49.892;7.936;2022-11-20T15:19:20;6.60;99.90
13682;DHT22;6913;49.892;7.936;2022-11-20T15:21:47;6.60;99.90
13682;DHT22;6913;49.892;7.936;2022-11-20T15:24:14;6.70;99.90
13682;DHT22;6913;49.892;7.936;2022-11-20T15:26:41;6.80;99.90
13682;DHT22;6913;49.892;7.936;2022-11-20T15:29:09;6.80;99.90
13682;DHT22;6913;49.892;7.936;2022-11-20T15:31:36;6.80;99.90
13682;DHT22;6913;49.892;7.936;2022-11-20T15:34:10;6.70;99.90
13682;DHT22;6913;49.892;7.936;2022-11-20T15:36:39;6.70;99.90
13682;DHT22;6913;49.892;7.936;2022-11-20T15:39:06;6.60;99.90
13682;DHT22;6913;49.892;7.936;2022-11-20T15:41:33;6.50;99.90
13682;DHT22;6913;49.892;7.936;2022-11-20T15:44:01;6.50;99.90
13682;DHT22;6913;49.892;7.936;2022-11-20T15:46:29;6.50;99.90
13682;DHT22;6913;49.892;7.936;2022-11-20T15:48:59;6.40;99.90
13682;DHT22;6913;49.892;7.936;2022-11-20T15:51:29;6.20;99.90
13682;DHT22;6913;49.892;7.936;2022-11-20T15:53:57;6.10;99.90
13682;DHT22;6913;49.892;7.936;2022-11-20T15:56:25;6.00;99.90
13682;DHT22;6913;49.892;7.936;2022-11-20T15:58:52;6.00;99.90
13682;DHT22;6913;49.892;7.936;2022-11-20T16:01:21;5.90;99.90
13682;DHT22;6913;49.892;7.936;2022-11-20T16:03:48;5.80;99.90
13682;DHT22;6913;49.892;7.936;2022-11-20T16:06:15;6.30;99.90
13682;DHT22;6913;49.892;7.936;2022-11-20T16:08:42;5.80;99.90
13682;DHT22;6913;49.892;7.936;2022-11-20T16:11:13;5.90;99.90
13682;DHT22;6913;49.892;7.936;2022-11-20T16:13:40;6.00;99.90
13682;DHT22;6913;49.892;7.936;2022-11-20T16:16:27;5.90;99.90
13682;DHT22;6913;49.892;7.936;2022-11-20T16:18:56;5.80;99.90
13682;DHT22;6913;49.892;7.936;2022-11-20T16:21:23;5.90;99.90
13682;DHT22;6913;49.892;7.936;2022-11-20T16:23:57;6.00;99.90